sensor_id;sensor_type;location;lat;lon;timestamp;P1;durP1;ratioP1;P2;durP2;ratioP2
76380;SDS011;65202;52.520;10.528;2023-06-26T00:01:41;14.43;;;13.02;;
76380;SDS011;65202;52.520;10.528;2023-06-26T00:04:09;14.95;;;13.35;;
76380;SDS011;65202;52.520;10.528;2023-06-26T00:06:41;15.57;;;12.82;;
76380;SDS011;65202;52.520;10.528;2023-06-26T00:09:09;13.80;;;12.13;;
76380;SDS011;65202;52.520;10.528;2023-06-26T00:11:36;14.93;;;12.73;;
76380;SDS011;65202;52.520;10.528;2023-06-26T00:14:03;14.68;;;13.18;;
76380;SDS011;65202;52.520;10.528;2023-06-26T00:16:30;14.60;;;13.13;;
76380;SDS011;65202;52.520;10.528;2023-06-26T00:18:58;13.95;;;12.45;;
76380;SDS011;65202;52.520;10.528;2023-06-26T00:21:26;15.77;;;12.48;;
76380;SDS011;65202;52.520;10.528;2023-06-26T00:23:54;15.57;;;13.10;;
76380;SDS011;65202;52.520;10.528;2023-06-26T00:26:21;13.25;;;11.48;;
76380;SDS011;65202;52.520;10.528;2023-06-26T00:28:48;15.20;;;12.75;;
76380;SDS011;65202;52.520;10.528;2023-06-26T00:31:15;12.90;;;11.60;;
76380;SDS011;65202;52.520;10.528;2023-06-26T00:33:43;13.40;;;12.00;;
76380;SDS011;65202;52.520;10.528;2023-06-26T00:36:10;14.43;;;11.90;;
76380;SDS011;65202;52.520;10.528;2023-06-26T00:38:37;17.10;;;12.90;;
76380;SDS011;65202;52.520;10.528;2023-06-26T00:41:05;14.90;;;12.85;;
76380;SDS011;65202;52.520;10.528;2023-06-26T00:43:39;14.80;;;12.75;;
76380;SDS011;65202;52.520;10.528;2023-06-26T00:46:10;14.07;;;12.63;;
76380;SDS011;65202;52.520;10.528;2023-06-26T00:48:44;14.07;;;12.45;;
76380;SDS011;65202;52.520;10.528;2023-06-26T00:51:15;14.88;;;13.25;;
76380;SDS011;65202;52.520;10.528;2023-06-26T00:53:42;13.40;;;12.10;;
76380;SDS011;65202;52.520;10.528;2023-06-26T00:56:10;13.20;;;11.38;;
76380;SDS011;65202;52.520;10.528;2023-06-26T00:58:38;14.18;;;11.73;;
76380;SDS011;65202;52.520;10.528;2023-06-26T01:01:05;12.98;;;11.68;;
76380;SDS011;65202;52.520;10.528;2023-06-26T01:03:35;12.85;;;11.50;;
76380;SDS011;65202;52.520;10.528;2023-06-26T01:06:06;13.93;;;12.50;;
76380;SDS011;65202;52.520;10.528;2023-06-26T01:08:39;14.27;;;12.50;;
76380;SDS011;65202;52.520;10.528;2023-06-26T01:11:08;13.20;;;11.25;;
76380;SDS011;65202;52.520;10.528;2023-06-26T01:13:36;13.88;;;10.73;;
76380;SDS011;65202;52.520;10.528;2023-06-26T01:16:04;13.70;;;11.00;;
76380;SDS011;65202;52.520;10.528;2023-06-26T01:18:32;11.95;;;10.75;;
76380;SDS011;65202;52.520;10.528;2023-06-26T01:21:02;13.63;;;11.70;;
76380;SDS011;65202;52.520;10.528;2023-06-26T01:23:35;14.65;;;12.32;;
76380;SDS011;65202;52.520;10.528;2023-06-26T01:26:16;12.73;;;11.50;;
76380;SDS011;65202;52.520;10.528;2023-06-26T01:28:46;13.23;;;10.98;;
76380;SDS011;65202;52.520;10.528;2023-06-26T01:31:15;12.88;;;11.57;;
76380;SDS011;65202;52.520;10.528;2023-06-26T01:33:44;13.48;;;11.70;;
76380;SDS011;65202;52.520;10.528;2023-06-26T01:36:12;14.45;;;11.43;;
76380;SDS011;65202;52.520;10.528;2023-06-26T01:38:40;13.45;;;12.05;;
76380;SDS011;65202;52.520;10.528;2023-06-26T01:41:07;13.10;;;11.85;;
76380;SDS011;65202;52.520;10.528;2023-06-26T01:46:39;12.77;;;11.48;;
76380;SDS011;65202;52.520;10.528;2023-06-26T01:52:20;16.83;;;12.02;;
76380;SDS011;65202;52.520;10.528;2023-06-26T01:55:04;12.48;;;11.27;;
76380;SDS011;65202;52.520;10.528;2023-06-26T01:57:43;12.38;;;11.07;;
76380;SDS011;65202;52.520;10.528;2023-06-26T02:00:14;16.13;;;11.02;;
76380;SDS011;65202;52.520;10.528;2023-06-26T02:02:45;12.05;;;10.15;;
76380;SDS011;65202;52.520;10.528;2023-06-26T02:05:12;10.93;;;9.73;;
76380;SDS011;65202;52.520;10.528;2023-06-26T02:07:41;11.65;;;10.40;;
76380;SDS011;65202;52.520;10.528;2023-06-26T02:10:08;12.52;;;10.57;;
76380;SDS011;65202;52.520;10.528;2023-06-26T02:12:36;15.88;;;10.40;;
76380;SDS011;65202;52.520;10.528;2023-06-26T02:15:05;13.65;;;10.25;;
76380;SDS011;65202;52.520;10.528;2023-06-26T02:17:33;12.10;;;10.80;;
76380;SDS011;65202;52.520;10.528;2023-06-26T02:20:00;12.20;;;10.93;;
76380;SDS011;65202;52.520;10.528;2023-06-26T02:22:28;12.07;;;10.80;;
76380;SDS011;65202;52.520;10.528;2023-06-26T02:24:55;12.15;;;10.95;;
76380;SDS011;65202;52.520;10.528;2023-06-26T02:27:22;12.77;;;11.48;;
76380;SDS011;65202;52.520;10.528;2023-06-26T02:29:49;13.38;;;11.95;;
76380;SDS011;65202;52.520;10.528;2023-06-26T02:32:17;12.20;;;10.98;;
76380;SDS011;65202;52.520;10.528;2023-06-26T02:34:44;14.85;;;11.32;;
76380;SDS011;65202;52.520;10.528;2023-06-26T02:37:11;14.48;;;11.05;;
76380;SDS011;65202;52.520;10.528;2023-06-26T02:39:38;15.00;;;11.05;;
76380;SDS011;65202;52.520;10.528;2023-06-26T02:42:06;14.07;;;11.82;;
76380;SDS011;65202;52.520;10.528;2023-06-26T02:44:33;15.52;;;11.43;;
76380;SDS011;65202;52.520;10.528;2023-06-26T02:47:00;13.73;;;12.00;;
76380;SDS011;65202;52.520;10.528;2023-06-26T02:49:27;15.55;;;11.77;;
76380;SDS011;65202;52.520;10.528;2023-06-26T02:51:55;17.30;;;11.88;;
76380;SDS011;65202;52.520;10.528;2023-06-26T02:54:22;15.18;;;12.20;;
76380;SDS011;65202;52.520;10.528;2023-06-26T02:56:49;13.35;;;11.60;;
76380;SDS011;65202;52.520;10.528;2023-06-26T02:59:17;13.88;;;12.13;;
76380;SDS011;65202;52.520;10.528;2023-06-26T03:01:44;15.77;;;11.60;;
76380;SDS011;65202;52.520;10.528;2023-06-26T03:04:11;16.25;;;11.50;;
76380;SDS011;65202;52.520;10.528;2023-06-26T03:06:39;13.75;;;12.23;;
76380;SDS011;65202;52.520;10.528;2023-06-26T03:09:06;12.93;;;11.40;;
76380;SDS011;65202;52.520;10.528;2023-06-26T03:11:33;12.90;;;10.75;;
76380;SDS011;65202;52.520;10.528;2023-06-26T03:14:00;15.80;;;11.90;;
76380;SDS011;65202;52.520;10.528;2023-06-26T03:16:27;13.18;;;11.60;;
76380;SDS011;65202;52.520;10.528;2023-06-26T03:18:55;16.00;;;11.90;;
76380;SDS011;65202;52.520;10.528;2023-06-26T03:21:22;19.23;;;12.30;;
76380;SDS011;65202;52.520;10.528;2023-06-26T03:23:49;15.93;;;12.35;;
76380;SDS011;65202;52.520;10.528;2023-06-26T03:26:16;16.38;;;12.32;;
76380;SDS011;65202;52.520;10.528;2023-06-26T03:28:44;13.68;;;12.18;;
76380;SDS011;65202;52.520;10.528;2023-06-26T03:31:11;14.80;;;12.85;;
76380;SDS011;65202;52.520;10.528;2023-06-26T03:33:38;15.57;;;12.77;;
76380;SDS011;65202;52.520;10.528;2023-06-26T03:36:05;15.43;;;12.52;;
76380;SDS011;65202;52.520;10.528;2023-06-26T03:38:33;15.85;;;12.05;;
76380;SDS011;65202;52.520;10.528;2023-06-26T03:41:00;12.88;;;11.48;;
76380;SDS011;65202;52.520;10.528;2023-06-26T03:43:27;15.30;;;11.35;;
76380;SDS011;65202;52.520;10.528;2023-06-26T03:45:55;14.50;;;11.73;;
76380;SDS011;65202;52.520;10.528;2023-06-26T03:48:22;14.05;;;11.32;;
76380;SDS011;65202;52.520;10.528;2023-06-26T03:50:50;13.32;;;11.48;;
76380;SDS011;65202;52.520;10.528;2023-06-26T03:53:17;11.63;;;10.38;;
76380;SDS011;65202;52.520;10.528;2023-06-26T03:55:45;15.88;;;11.20;;
76380;SDS011;65202;52.520;10.528;2023-06-26T03:58:12;13.75;;;11.13;;
76380;SDS011;65202;52.520;10.528;2023-06-26T04:00:39;13.70;;;11.07;;
76380;SDS011;65202;52.520;10.528;2023-06-26T04:03:07;11.65;;;10.45;;
76380;SDS011;65202;52.520;10.528;2023-06-26T04:05:35;13.82;;;11.13;;
76380;SDS011;65202;52.520;10.528;2023-06-26T04:08:03;12.55;;;10.15;;
76380;SDS011;65202;52.520;10.528;2023-06-26T04:10:31;16.17;;;11.55;;
76380;SDS011;65202;52.520;10.528;2023-06-26T04:12:58;13.63;;;11.57;;
76380;SDS011;65202;52.520;10.528;2023-06-26T04:15:25;14.63;;;11.05;;
76380;SDS011;65202;52.520;10.528;2023-06-26T04:17:52;13.88;;;10.63;;
76380;SDS011;65202;52.520;10.528;2023-06-26T04:20:20;12.85;;;9.63;;
76380;SDS011;65202;52.520;10.528;2023-06-26T04:22:47;10.82;;;9.70;;
76380;SDS011;65202;52.520;10.528;2023-06-26T04:25:14;15.75;;;10.07;;
76380;SDS011;65202;52.520;10.528;2023-06-26T04:27:42;13.77;;;10.13;;
76380;SDS011;65202;52.520;10.528;2023-06-26T04:30:09;12.57;;;10.90;;
76380;SDS011;65202;52.520;10.528;2023-06-26T04:32:37;14.38;;;9.80;;
76380;SDS011;65202;52.520;10.528;2023-06-26T04:35:04;13.02;;;10.13;;
76380;SDS011;65202;52.520;10.528;2023-06-26T04:37:32;17.58;;;9.70;;
76380;SDS011;65202;52.520;10.528;2023-06-26T04:40:00;14.98;;;9.98;;
76380;SDS011;65202;52.520;10.528;2023-06-26T04:42:27;12.73;;;8.75;;
76380;SDS011;65202;52.520;10.528;2023-06-26T04:44:54;14.65;;;9.30;;
76380;SDS011;65202;52.520;10.528;2023-06-26T04:47:21;13.27;;;8.90;;
76380;SDS011;65202;52.520;10.528;2023-06-26T04:49:49;12.35;;;9.85;;
76380;SDS011;65202;52.520;10.528;2023-06-26T04:52:16;10.45;;;8.57;;
76380;SDS011;65202;52.520;10.528;2023-06-26T04:54:43;10.18;;;8.82;;
76380;SDS011;65202;52.520;10.528;2023-06-26T04:57:10;11.93;;;8.55;;
76380;SDS011;65202;52.520;10.528;2023-06-26T04:59:38;12.98;;;8.93;;
76380;SDS011;65202;52.520;10.528;2023-06-26T05:02:06;9.88;;;8.73;;
76380;SDS011;65202;52.520;10.528;2023-06-26T05:04:33;11.77;;;8.82;;
76380;SDS011;65202;52.520;10.528;2023-06-26T05:07:00;10.32;;;8.30;;
76380;SDS011;65202;52.520;10.528;2023-06-26T05:09:27;11.85;;;7.72;;
76380;SDS011;65202;52.520;10.528;2023-06-26T05:11:55;10.13;;;8.35;;
76380;SDS011;65202;52.520;10.528;2023-06-26T05:14:22;10.52;;;8.65;;
76380;SDS011;65202;52.520;10.528;2023-06-26T05:16:51;11.07;;;8.32;;
76380;SDS011;65202;52.520;10.528;2023-06-26T05:19:18;11.95;;;8.30;;
76380;SDS011;65202;52.520;10.528;2023-06-26T05:21:45;12.40;;;7.80;;
76380;SDS011;65202;52.520;10.528;2023-06-26T05:24:14;11.15;;;8.55;;
76380;SDS011;65202;52.520;10.528;2023-06-26T05:26:42;14.35;;;7.47;;
76380;SDS011;65202;52.520;10.528;2023-06-26T05:29:10;14.07;;;7.88;;
76380;SDS011;65202;52.520;10.528;2023-06-26T05:31:39;9.13;;;7.97;;
76380;SDS011;65202;52.520;10.528;2023-06-26T05:34:09;16.30;;;7.82;;
76380;SDS011;65202;52.520;10.528;2023-06-26T05:36:38;12.32;;;8.35;;
76380;SDS011;65202;52.520;10.528;2023-06-26T05:39:07;16.52;;;8.23;;
76380;SDS011;65202;52.520;10.528;2023-06-26T05:41:35;14.40;;;7.80;;
76380;SDS011;65202;52.520;10.528;2023-06-26T05:44:03;14.52;;;7.90;;
76380;SDS011;65202;52.520;10.528;2023-06-26T05:46:30;10.23;;;7.32;;
76380;SDS011;65202;52.520;10.528;2023-06-26T05:48:57;8.85;;;7.15;;
76380;SDS011;65202;52.520;10.528;2023-06-26T05:51:25;8.15;;;7.35;;
76380;SDS011;65202;52.520;10.528;2023-06-26T05:53:52;9.10;;;7.55;;
76380;SDS011;65202;52.520;10.528;2023-06-26T05:56:20;11.15;;;7.57;;
76380;SDS011;65202;52.520;10.528;2023-06-26T05:58:47;8.77;;;7.07;;
76380;SDS011;65202;52.520;10.528;2023-06-26T06:01:15;11.38;;;7.82;;
76380;SDS011;65202;52.520;10.528;2023-06-26T06:03:42;14.40;;;7.25;;
76380;SDS011;65202;52.520;10.528;2023-06-26T06:06:10;11.77;;;7.35;;
76380;SDS011;65202;52.520;10.528;2023-06-26T06:08:37;11.60;;;7.28;;
76380;SDS011;65202;52.520;10.528;2023-06-26T06:11:05;13.90;;;7.10;;
76380;SDS011;65202;52.520;10.528;2023-06-26T06:13:32;9.65;;;7.10;;
76380;SDS011;65202;52.520;10.528;2023-06-26T06:15:59;10.23;;;6.80;;
76380;SDS011;65202;52.520;10.528;2023-06-26T06:18:26;8.07;;;6.78;;
76380;SDS011;65202;52.520;10.528;2023-06-26T06:20:53;9.30;;;6.70;;
76380;SDS011;65202;52.520;10.528;2023-06-26T06:23:20;10.52;;;7.30;;
76380;SDS011;65202;52.520;10.528;2023-06-26T06:25:48;8.90;;;6.68;;
76380;SDS011;65202;52.520;10.528;2023-06-26T06:28:16;9.23;;;6.80;;
76380;SDS011;65202;52.520;10.528;2023-06-26T06:30:43;12.82;;;6.43;;
76380;SDS011;65202;52.520;10.528;2023-06-26T06:33:13;10.88;;;6.40;;
76380;SDS011;65202;52.520;10.528;2023-06-26T06:35:41;17.27;;;7.43;;
76380;SDS011;65202;52.520;10.528;2023-06-26T06:38:08;10.70;;;7.05;;
76380;SDS011;65202;52.520;10.528;2023-06-26T06:40:35;12.05;;;6.72;;
76380;SDS011;65202;52.520;10.528;2023-06-26T06:43:03;8.63;;;6.20;;
76380;SDS011;65202;52.520;10.528;2023-06-26T06:45:30;10.23;;;6.50;;
76380;SDS011;65202;52.520;10.528;2023-06-26T06:47:57;13.65;;;6.53;;
76380;SDS011;65202;52.520;10.528;2023-06-26T06:50:24;7.93;;;6.50;;
76380;SDS011;65202;52.520;10.528;2023-06-26T06:52:52;10.85;;;6.45;;
76380;SDS011;65202;52.520;10.528;2023-06-26T06:55:19;11.13;;;8.80;;
76380;SDS011;65202;52.520;10.528;2023-06-26T06:57:46;12.48;;;6.85;;
76380;SDS011;65202;52.520;10.528;2023-06-26T07:00:13;9.10;;;6.25;;
76380;SDS011;65202;52.520;10.528;2023-06-26T07:02:44;10.32;;;6.32;;
76380;SDS011;65202;52.520;10.528;2023-06-26T07:05:12;10.55;;;7.10;;
76380;SDS011;65202;52.520;10.528;2023-06-26T07:07:40;10.35;;;6.82;;
76380;SDS011;65202;52.520;10.528;2023-06-26T07:10:08;12.20;;;7.13;;
76380;SDS011;65202;52.520;10.528;2023-06-26T07:12:38;17.70;;;7.82;;
76380;SDS011;65202;52.520;10.528;2023-06-26T07:15:06;10.32;;;6.65;;
76380;SDS011;65202;52.520;10.528;2023-06-26T07:17:34;9.77;;;7.15;;
76380;SDS011;65202;52.520;10.528;2023-06-26T07:20:02;8.60;;;6.70;;
76380;SDS011;65202;52.520;10.528;2023-06-26T07:22:34;10.52;;;6.70;;
76380;SDS011;65202;52.520;10.528;2023-06-26T07:25:02;10.30;;;7.32;;
76380;SDS011;65202;52.520;10.528;2023-06-26T07:27:30;8.85;;;7.13;;
76380;SDS011;65202;52.520;10.528;2023-06-26T07:29:58;16.08;;;7.13;;
76380;SDS011;65202;52.520;10.528;2023-06-26T07:32:25;8.48;;;6.90;;
76380;SDS011;65202;52.520;10.528;2023-06-26T07:34:52;13.02;;;7.35;;
76380;SDS011;65202;52.520;10.528;2023-06-26T07:37:19;12.63;;;7.07;;
76380;SDS011;65202;52.520;10.528;2023-06-26T07:39:47;11.73;;;6.80;;
76380;SDS011;65202;52.520;10.528;2023-06-26T07:42:16;10.95;;;7.45;;
76380;SDS011;65202;52.520;10.528;2023-06-26T07:44:43;13.38;;;6.97;;
76380;SDS011;65202;52.520;10.528;2023-06-26T07:47:11;13.48;;;6.80;;
76380;SDS011;65202;52.520;10.528;2023-06-26T07:49:39;10.07;;;6.82;;
76380;SDS011;65202;52.520;10.528;2023-06-26T07:52:07;11.07;;;6.70;;
76380;SDS011;65202;52.520;10.528;2023-06-26T07:54:37;10.20;;;6.88;;
76380;SDS011;65202;52.520;10.528;2023-06-26T07:57:04;15.93;;;6.57;;
76380;SDS011;65202;52.520;10.528;2023-06-26T07:59:35;14.00;;;6.88;;
76380;SDS011;65202;52.520;10.528;2023-06-26T08:02:03;9.02;;;6.80;;
76380;SDS011;65202;52.520;10.528;2023-06-26T08:04:30;11.68;;;6.43;;
76380;SDS011;65202;52.520;10.528;2023-06-26T08:06:59;13.40;;;6.70;;
76380;SDS011;65202;52.520;10.528;2023-06-26T08:09:28;9.82;;;6.70;;
76380;SDS011;65202;52.520;10.528;2023-06-26T08:11:57;11.25;;;6.57;;
76380;SDS011;65202;52.520;10.528;2023-06-26T08:14:25;9.43;;;6.15;;
76380;SDS011;65202;52.520;10.528;2023-06-26T08:16:53;11.07;;;6.07;;
76380;SDS011;65202;52.520;10.528;2023-06-26T08:19:20;12.32;;;6.30;;
76380;SDS011;65202;52.520;10.528;2023-06-26T08:21:47;8.93;;;6.20;;
76380;SDS011;65202;52.520;10.528;2023-06-26T08:24:15;8.90;;;6.45;;
76380;SDS011;65202;52.520;10.528;2023-06-26T08:26:46;8.82;;;6.50;;
76380;SDS011;65202;52.520;10.528;2023-06-26T08:29:14;7.30;;;6.20;;
76380;SDS011;65202;52.520;10.528;2023-06-26T08:31:42;11.15;;;6.43;;
76380;SDS011;65202;52.520;10.528;2023-06-26T08:34:10;10.77;;;6.85;;
76380;SDS011;65202;52.520;10.528;2023-06-26T08:36:38;12.38;;;6.60;;
76380;SDS011;65202;52.520;10.528;2023-06-26T08:39:05;8.10;;;5.95;;
76380;SDS011;65202;52.520;10.528;2023-06-26T08:41:33;6.35;;;5.57;;
76380;SDS011;65202;52.520;10.528;2023-06-26T08:44:00;9.07;;;6.40;;
76380;SDS011;65202;52.520;10.528;2023-06-26T08:46:27;9.45;;;6.80;;
76380;SDS011;65202;52.520;10.528;2023-06-26T08:48:56;9.45;;;6.60;;
76380;SDS011;65202;52.520;10.528;2023-06-26T08:51:28;7.82;;;6.85;;
76380;SDS011;65202;52.520;10.528;2023-06-26T08:54:01;8.45;;;6.80;;
76380;SDS011;65202;52.520;10.528;2023-06-26T08:56:32;8.90;;;6.38;;
76380;SDS011;65202;52.520;10.528;2023-06-26T08:59:09;8.82;;;6.22;;
76380;SDS011;65202;52.520;10.528;2023-06-26T09:01:37;10.20;;;6.50;;
76380;SDS011;65202;52.520;10.528;2023-06-26T09:04:05;7.18;;;6.47;;
76380;SDS011;65202;52.520;10.528;2023-06-26T09:06:33;10.68;;;6.53;;
76380;SDS011;65202;52.520;10.528;2023-06-26T09:09:01;6.85;;;6.25;;
76380;SDS011;65202;52.520;10.528;2023-06-26T09:11:30;9.48;;;6.10;;
76380;SDS011;65202;52.520;10.528;2023-06-26T09:13:58;6.80;;;6.20;;
76380;SDS011;65202;52.520;10.528;2023-06-26T09:16:26;9.07;;;6.32;;
76380;SDS011;65202;52.520;10.528;2023-06-26T09:18:55;8.50;;;6.82;;
76380;SDS011;65202;52.520;10.528;2023-06-26T09:21:23;7.95;;;7.13;;
76380;SDS011;65202;52.520;10.528;2023-06-26T09:23:51;7.60;;;6.80;;
76380;SDS011;65202;52.520;10.528;2023-06-26T09:26:19;9.05;;;6.00;;
76380;SDS011;65202;52.520;10.528;2023-06-26T09:28:49;8.52;;;6.35;;
76380;SDS011;65202;52.520;10.528;2023-06-26T09:31:17;9.43;;;6.90;;
76380;SDS011;65202;52.520;10.528;2023-06-26T09:34:04;13.95;;;7.85;;
76380;SDS011;65202;52.520;10.528;2023-06-26T09:36:32;10.05;;;6.00;;
76380;SDS011;65202;52.520;10.528;2023-06-26T09:39:06;8.95;;;6.70;;
76380;SDS011;65202;52.520;10.528;2023-06-26T09:41:43;8.23;;;6.72;;
76380;SDS011;65202;52.520;10.528;2023-06-26T09:44:14;10.25;;;9.25;;
76380;SDS011;65202;52.520;10.528;2023-06-26T09:46:45;9.50;;;6.43;;
76380;SDS011;65202;52.520;10.528;2023-06-26T09:49:13;7.40;;;6.47;;
76380;SDS011;65202;52.520;10.528;2023-06-26T09:51:41;10.80;;;7.78;;
76380;SDS011;65202;52.520;10.528;2023-06-26T09:54:09;12.75;;;7.88;;
76380;SDS011;65202;52.520;10.528;2023-06-26T09:56:37;7.72;;;6.70;;
76380;SDS011;65202;52.520;10.528;2023-06-26T09:59:05;9.65;;;6.90;;
76380;SDS011;65202;52.520;10.528;2023-06-26T10:01:33;8.43;;;7.00;;
76380;SDS011;65202;52.520;10.528;2023-06-26T10:04:01;9.68;;;7.88;;
76380;SDS011;65202;52.520;10.528;2023-06-26T10:06:33;10.73;;;7.10;;
76380;SDS011;65202;52.520;10.528;2023-06-26T10:09:05;14.05;;;6.95;;
76380;SDS011;65202;52.520;10.528;2023-06-26T10:11:45;9.63;;;7.63;;
76380;SDS011;65202;52.520;10.528;2023-06-26T10:14:27;7.65;;;6.93;;
76380;SDS011;65202;52.520;10.528;2023-06-26T10:17:01;11.85;;;7.57;;
76380;SDS011;65202;52.520;10.528;2023-06-26T10:19:37;13.27;;;7.10;;
76380;SDS011;65202;52.520;10.528;2023-06-26T10:24:37;12.63;;;7.13;;
76380;SDS011;65202;52.520;10.528;2023-06-26T10:27:14;11.40;;;7.93;;
76380;SDS011;65202;52.520;10.528;2023-06-26T10:29:54;18.92;;;8.50;;
76380;SDS011;65202;52.520;10.528;2023-06-26T10:32:26;14.07;;;8.00;;
76380;SDS011;65202;52.520;10.528;2023-06-26T10:34:55;19.90;;;8.60;;
76380;SDS011;65202;52.520;10.528;2023-06-26T10:37:42;21.83;;;9.38;;
76380;SDS011;65202;52.520;10.528;2023-06-26T10:40:20;21.15;;;8.75;;
76380;SDS011;65202;52.520;10.528;2023-06-26T10:43:05;10.52;;;8.88;;
76380;SDS011;65202;52.520;10.528;2023-06-26T10:45:35;12.52;;;8.98;;
76380;SDS011;65202;52.520;10.528;2023-06-26T10:48:03;17.05;;;9.70;;
76380;SDS011;65202;52.520;10.528;2023-06-26T10:50:31;19.85;;;9.60;;
76380;SDS011;65202;52.520;10.528;2023-06-26T10:53:07;18.42;;;9.48;;
76380;SDS011;65202;52.520;10.528;2023-06-26T10:55:36;16.98;;;9.70;;
76380;SDS011;65202;52.520;10.528;2023-06-26T10:58:04;17.25;;;11.07;;
76380;SDS011;65202;52.520;10.528;2023-06-26T11:00:51;20.10;;;13.68;;
76380;SDS011;65202;52.520;10.528;2023-06-26T11:03:23;21.10;;;10.57;;
76380;SDS011;65202;52.520;10.528;2023-06-26T11:06:08;16.90;;;10.30;;
76380;SDS011;65202;52.520;10.528;2023-06-26T11:11:20;17.40;;;10.93;;
76380;SDS011;65202;52.520;10.528;2023-06-26T11:13:49;20.67;;;11.25;;
76380;SDS011;65202;52.520;10.528;2023-06-26T11:16:16;19.33;;;11.85;;
76380;SDS011;65202;52.520;10.528;2023-06-26T11:18:44;21.90;;;12.40;;
76380;SDS011;65202;52.520;10.528;2023-06-26T11:21:12;20.85;;;13.10;;
76380;SDS011;65202;52.520;10.528;2023-06-26T11:23:41;30.25;;;13.38;;
76380;SDS011;65202;52.520;10.528;2023-06-26T11:26:13;22.97;;;14.30;;
76380;SDS011;65202;52.520;10.528;2023-06-26T11:28:49;23.20;;;17.23;;
76380;SDS011;65202;52.520;10.528;2023-06-26T11:31:26;29.52;;;17.45;;
76380;SDS011;65202;52.520;10.528;2023-06-26T11:34:02;23.27;;;16.83;;
76380;SDS011;65202;52.520;10.528;2023-06-26T11:36:31;20.40;;;16.02;;
76380;SDS011;65202;52.520;10.528;2023-06-26T11:38:59;24.98;;;15.63;;
76380;SDS011;65202;52.520;10.528;2023-06-26T11:41:35;15.82;;;11.15;;
76380;SDS011;65202;52.520;10.528;2023-06-26T11:44:04;19.60;;;10.50;;
76380;SDS011;65202;52.520;10.528;2023-06-26T11:46:34;14.02;;;10.13;;
76380;SDS011;65202;52.520;10.528;2023-06-26T11:49:03;16.40;;;10.90;;
76380;SDS011;65202;52.520;10.528;2023-06-26T11:51:33;15.45;;;10.07;;
76380;SDS011;65202;52.520;10.528;2023-06-26T11:54:03;15.00;;;9.57;;
76380;SDS011;65202;52.520;10.528;2023-06-26T11:56:31;15.85;;;10.10;;
76380;SDS011;65202;52.520;10.528;2023-06-26T11:59:00;12.65;;;9.57;;
76380;SDS011;65202;52.520;10.528;2023-06-26T12:01:41;17.13;;;10.48;;
76380;SDS011;65202;52.520;10.528;2023-06-26T12:04:14;14.80;;;10.65;;
76380;SDS011;65202;52.520;10.528;2023-06-26T12:06:46;12.95;;;9.82;;
76380;SDS011;65202;52.520;10.528;2023-06-26T12:09:20;12.80;;;9.05;;
76380;SDS011;65202;52.520;10.528;2023-06-26T12:11:48;14.27;;;10.45;;
76380;SDS011;65202;52.520;10.528;2023-06-26T12:14:20;13.13;;;10.02;;
76380;SDS011;65202;52.520;10.528;2023-06-26T12:16:49;12.63;;;9.73;;
76380;SDS011;65202;52.520;10.528;2023-06-26T12:19:17;12.02;;;9.95;;
76380;SDS011;65202;52.520;10.528;2023-06-26T12:21:45;14.07;;;10.48;;
76380;SDS011;65202;52.520;10.528;2023-06-26T12:24:19;15.88;;;10.25;;
76380;SDS011;65202;52.520;10.528;2023-06-26T12:26:49;14.15;;;10.20;;
76380;SDS011;65202;52.520;10.528;2023-06-26T12:29:32;14.60;;;11.18;;
76380;SDS011;65202;52.520;10.528;2023-06-26T12:32:00;16.30;;;10.40;;
76380;SDS011;65202;52.520;10.528;2023-06-26T12:34:32;18.45;;;10.73;;
76380;SDS011;65202;52.520;10.528;2023-06-26T12:37:05;14.15;;;10.88;;
76380;SDS011;65202;52.520;10.528;2023-06-26T12:42:14;16.90;;;10.32;;
76380;SDS011;65202;52.520;10.528;2023-06-26T12:44:47;19.17;;;10.38;;
76380;SDS011;65202;52.520;10.528;2023-06-26T12:47:15;17.02;;;10.32;;
76380;SDS011;65202;52.520;10.528;2023-06-26T12:49:45;14.63;;;9.02;;
76380;SDS011;65202;52.520;10.528;2023-06-26T12:54:51;13.50;;;8.73;;
76380;SDS011;65202;52.520;10.528;2023-06-26T12:57:22;14.63;;;8.75;;
76380;SDS011;65202;52.520;10.528;2023-06-26T12:59:50;14.07;;;8.82;;
76380;SDS011;65202;52.520;10.528;2023-06-26T13:02:17;13.23;;;8.00;;
76380;SDS011;65202;52.520;10.528;2023-06-26T13:04:46;10.70;;;7.38;;
76380;SDS011;65202;52.520;10.528;2023-06-26T13:07:13;10.25;;;6.53;;
76380;SDS011;65202;52.520;10.528;2023-06-26T13:09:41;15.35;;;6.43;;
76380;SDS011;65202;52.520;10.528;2023-06-26T13:12:08;12.90;;;6.93;;
76380;SDS011;65202;52.520;10.528;2023-06-26T13:14:35;14.23;;;7.05;;
76380;SDS011;65202;52.520;10.528;2023-06-26T13:17:03;12.80;;;6.40;;
76380;SDS011;65202;52.520;10.528;2023-06-26T13:19:36;11.38;;;5.57;;
76380;SDS011;65202;52.520;10.528;2023-06-26T13:22:03;8.52;;;5.95;;
76380;SDS011;65202;52.520;10.528;2023-06-26T13:24:30;11.18;;;6.22;;
76380;SDS011;65202;52.520;10.528;2023-06-26T13:26:57;12.50;;;5.80;;
76380;SDS011;65202;52.520;10.528;2023-06-26T13:29:25;9.48;;;5.63;;
76380;SDS011;65202;52.520;10.528;2023-06-26T13:31:52;10.00;;;5.15;;
76380;SDS011;65202;52.520;10.528;2023-06-26T13:34:21;8.90;;;4.80;;
76380;SDS011;65202;52.520;10.528;2023-06-26T13:36:50;10.98;;;4.60;;
76380;SDS011;65202;52.520;10.528;2023-06-26T13:39:17;8.30;;;4.82;;
76380;SDS011;65202;52.520;10.528;2023-06-26T13:41:45;9.00;;;3.95;;
76380;SDS011;65202;52.520;10.528;2023-06-26T13:44:12;8.15;;;4.05;;
76380;SDS011;65202;52.520;10.528;2023-06-26T13:47:00;12.00;;;4.72;;
76380;SDS011;65202;52.520;10.528;2023-06-26T13:49:27;9.07;;;4.70;;
76380;SDS011;65202;52.520;10.528;2023-06-26T13:51:54;9.27;;;4.40;;
76380;SDS011;65202;52.520;10.528;2023-06-26T13:54:22;12.55;;;4.60;;
76380;SDS011;65202;52.520;10.528;2023-06-26T13:56:49;11.15;;;4.28;;
76380;SDS011;65202;52.520;10.528;2023-06-26T13:59:16;9.57;;;4.43;;
76380;SDS011;65202;52.520;10.528;2023-06-26T14:01:47;6.30;;;4.15;;
76380;SDS011;65202;52.520;10.528;2023-06-26T14:04:14;8.07;;;3.92;;
76380;SDS011;65202;52.520;10.528;2023-06-26T14:06:41;8.93;;;4.53;;
76380;SDS011;65202;52.520;10.528;2023-06-26T14:09:09;8.77;;;4.22;;
76380;SDS011;65202;52.520;10.528;2023-06-26T14:11:36;12.38;;;4.20;;
76380;SDS011;65202;52.520;10.528;2023-06-26T14:14:03;9.55;;;4.38;;
76380;SDS011;65202;52.520;10.528;2023-06-26T14:16:32;6.78;;;3.40;;
76380;SDS011;65202;52.520;10.528;2023-06-26T14:18:59;8.20;;;4.13;;
76380;SDS011;65202;52.520;10.528;2023-06-26T14:21:27;8.50;;;4.38;;
76380;SDS011;65202;52.520;10.528;2023-06-26T14:23:55;9.05;;;3.40;;
76380;SDS011;65202;52.520;10.528;2023-06-26T14:26:22;9.30;;;4.50;;
76380;SDS011;65202;52.520;10.528;2023-06-26T14:28:49;12.88;;;4.55;;
76380;SDS011;65202;52.520;10.528;2023-06-26T14:31:16;5.93;;;3.88;;
76380;SDS011;65202;52.520;10.528;2023-06-26T14:33:44;11.43;;;4.13;;
76380;SDS011;65202;52.520;10.528;2023-06-26T14:36:11;11.88;;;4.57;;
76380;SDS011;65202;52.520;10.528;2023-06-26T14:38:38;16.40;;;4.07;;
76380;SDS011;65202;52.520;10.528;2023-06-26T14:41:06;9.90;;;4.10;;
76380;SDS011;65202;52.520;10.528;2023-06-26T14:43:34;7.28;;;3.33;;
76380;SDS011;65202;52.520;10.528;2023-06-26T14:46:01;10.18;;;3.20;;